createdAt,value
2018-07-30T00:00:21.992Z,60.85
2018-07-30T00:01:22.023Z,61.14
2018-07-30T00:02:22.064Z,61.36
2018-07-30T00:03:22.078Z,61.55
2018-07-30T00:04:22.109Z,61.14
2018-07-30T00:05:22.146Z,60.97
2018-07-30T00:06:22.156Z,60.07
2018-07-30T00:07:22.209Z,59.97
2018-07-30T00:08:22.222Z,60.88
2018-07-30T00:09:22.246Z,59.97
2018-07-30T00:10:22.274Z,60.36
2018-07-30T00:11:22.293Z,61.04
2018-07-30T00:12:22.342Z,61.33
2018-07-30T00:13:22.366Z,60.55
2018-07-30T00:14:22.377Z,59.52
2018-07-30T00:15:22.413Z,59.88
2018-07-30T00:16:22.433Z,60.36
2018-07-30T00:17:22.460Z,60.07
2018-07-30T00:18:22.497Z,60.46
2018-07-30T00:19:22.516Z,60.17
2018-07-30T00:20:22.553Z,59.88
2018-07-30T00:21:22.585Z,60.75
2018-07-30T00:22:22.601Z,60.94
2018-07-30T00:23:22.619Z,60.65
2018-07-30T00:24:22.646Z,60.85
2018-07-30T00:25:22.674Z,60.94
2018-07-30T00:26:22.710Z,60.94
2018-07-30T00:27:22.720Z,60.85
2018-07-30T00:28:22.781Z,60.85
2018-07-30T00:29:22.782Z,61.43
2018-07-30T00:30:22.811Z,61.91
2018-07-30T00:31:22.856Z,60.85
2018-07-30T00:32:22.868Z,61.33
2018-07-30T00:33:22.895Z,61.24
2018-07-30T00:34:22.922Z,62.01
2018-07-30T00:35:22.965Z,61.33
2018-07-30T00:36:22.979Z,61.72
2018-07-30T00:37:22.993Z,61.14
2018-07-30T00:38:23.037Z,61.52
2018-07-30T00:39:23.072Z,61.40
2018-07-30T00:40:23.089Z,61.33
2018-07-30T00:41:23.121Z,61.52
2018-07-30T00:42:23.129Z,62.07
2018-07-30T00:43:23.168Z,62.20
2018-07-30T00:44:23.195Z,62.66
2018-07-30T00:45:23.222Z,62.56
2018-07-30T00:46:23.259Z,61.91
2018-07-30T00:47:23.266Z,62.10
2018-07-30T00:48:23.307Z,62.69
2018-07-30T00:49:23.332Z,62.59
2018-07-30T00:50:23.354Z,62.75
2018-07-30T00:51:23.386Z,63.34
2018-07-30T00:52:23.403Z,63.62
2018-07-30T00:53:23.444Z,64.20
2018-07-30T00:54:23.470Z,64.20
2018-07-30T00:55:23.482Z,64.40
2018-07-30T00:56:23.509Z,63.65
2018-07-30T00:57:23.549Z,64.11
2018-07-30T00:58:23.564Z,64.04
2018-07-30T00:59:23.588Z,63.75
2018-07-30T01:00:23.624Z,64.11
2018-07-30T01:01:23.664Z,63.92
2018-07-30T01:02:23.682Z,64.20
2018-07-30T01:03:23.702Z,64.01
2018-07-30T01:04:23.724Z,64.20
2018-07-30T01:05:23.856Z,64.59
2018-07-30T01:06:23.814Z,64.30
2018-07-30T01:07:23.806Z,64.20
2018-07-30T01:08:23.829Z,63.82
2018-07-30T01:09:23.856Z,64.20
2018-07-30T01:10:23.881Z,64.11
2018-07-30T01:11:23.907Z,64.30
2018-07-30T01:12:23.937Z,64.89
2018-07-30T01:13:23.963Z,64.69
2018-07-30T01:14:24.022Z,63.92
2018-07-30T01:15:24.030Z,64.11
2018-07-30T01:16:24.051Z,63.92
2018-07-30T01:17:24.065Z,64.27
2018-07-30T01:18:24.093Z,64.85
2018-07-30T01:19:24.137Z,64.20
2018-07-30T01:20:24.150Z,63.98
2018-07-30T01:21:24.175Z,63.92
2018-07-30T01:22:24.205Z,63.34
2018-07-30T01:23:24.226Z,64.07
2018-07-30T01:24:24.252Z,63.89
2018-07-30T01:25:24.288Z,64.11
2018-07-30T01:26:24.303Z,64.11
2018-07-30T01:27:24.338Z,64.11
2018-07-30T01:28:24.362Z,64.30
2018-07-30T01:29:24.380Z,64.75
2018-07-30T01:30:24.422Z,64.95
2018-07-30T01:31:24.440Z,64.59
2018-07-30T01:32:24.470Z,64.20
2018-07-30T01:33:24.506Z,64.20
2018-07-30T01:34:24.517Z,64.98
2018-07-30T01:35:24.550Z,64.40
2018-07-30T01:36:24.582Z,64.75
2018-07-30T01:37:24.599Z,64.50
2018-07-30T01:38:24.624Z,65.08
2018-07-30T01:39:24.654Z,64.98
2018-07-30T01:40:24.690Z,64.89
2018-07-30T01:41:24.724Z,64.20
2018-07-30T01:42:24.729Z,64.98
2018-07-30T01:43:24.763Z,64.95
2018-07-30T01:44:24.786Z,64.59
2018-07-30T01:45:24.811Z,64.50
2018-07-30T01:46:24.864Z,64.11
2018-07-30T01:47:24.869Z,62.66
2018-07-30T01:48:24.888Z,62.75
2018-07-30T01:49:24.917Z,62.07
2018-07-30T01:50:24.937Z,62.07
2018-07-30T01:51:24.968Z,61.79
2018-07-30T01:52:25.019Z,61.88
2018-07-30T01:53:25.030Z,61.98
2018-07-30T01:54:25.065Z,63.92
2018-07-30T01:55:25.098Z,64.07
2018-07-30T01:56:25.121Z,64.07
2018-07-30T01:57:25.128Z,63.89
2018-07-30T01:58:25.160Z,64.17
2018-07-30T01:59:25.179Z,64.85
2018-07-30T02:00:25.204Z,65.05
2018-07-30T02:01:25.238Z,65.24
2018-07-30T02:02:25.335Z,64.66
2018-07-30T02:03:25.287Z,65.05
2018-07-30T02:04:25.313Z,64.47
2018-07-30T02:05:25.355Z,64.27
2018-07-30T02:06:25.376Z,64.47
2018-07-30T02:07:25.445Z,64.37
2018-07-30T02:08:25.426Z,64.66
2018-07-30T02:09:25.442Z,64.14
2018-07-30T02:10:25.473Z,64.43
2018-07-30T02:11:25.494Z,65.43
2018-07-30T02:12:25.530Z,65.63
2018-07-30T02:13:25.549Z,66.47
2018-07-30T02:14:25.578Z,66.08
2018-07-30T02:15:25.624Z,66.60
2018-07-30T02:16:25.636Z,65.59
2018-07-30T02:17:25.666Z,66.08
2018-07-30T02:18:25.685Z,66.27
2018-07-30T02:19:25.717Z,66.37
2018-07-30T02:20:25.745Z,66.02
2018-07-30T02:21:25.817Z,65.92
2018-07-30T02:22:25.806Z,64.56
2018-07-30T02:24:25.838Z,65.05
2018-07-30T02:25:25.864Z,65.63
2018-07-30T02:26:25.890Z,64.75
2018-07-30T02:27:25.917Z,64.53
2018-07-30T02:28:25.944Z,64.47
2018-07-30T02:29:25.969Z,64.07
2018-07-30T02:30:26.031Z,63.49
2018-07-30T02:31:26.028Z,61.95
2018-07-30T02:32:26.052Z,63.11
2018-07-30T02:33:26.088Z,62.53
2018-07-30T02:34:26.101Z,62.82
2018-07-30T02:35:26.127Z,62.82
2018-07-30T02:36:26.151Z,61.40
2018-07-30T02:37:26.180Z,61.21
2018-07-30T02:38:26.213Z,61.30
2018-07-30T02:39:26.228Z,61.46
2018-07-30T02:40:26.275Z,61.27
2018-07-30T02:41:26.300Z,62.53
2018-07-30T02:42:26.312Z,62.53
2018-07-30T02:43:26.411Z,62.04
2018-07-30T02:44:26.378Z,62.43
2018-07-30T02:45:26.397Z,62.14
2018-07-30T02:47:26.440Z,62.14
2018-07-30T02:48:26.464Z,61.85
2018-07-30T02:49:26.501Z,62.63
2018-07-30T02:51:26.545Z,62.24
2018-07-30T02:52:26.577Z,62.50
2018-07-30T02:53:26.599Z,64.01
2018-07-30T02:54:26.639Z,64.40
2018-07-30T02:55:26.656Z,63.76
2018-07-30T02:56:26.672Z,64.01
2018-07-30T02:57:26.765Z,63.73
2018-07-30T02:58:26.733Z,64.11
2018-07-30T02:59:26.754Z,64.04
2018-07-30T03:00:26.784Z,63.85
2018-07-30T03:01:26.804Z,64.14
2018-07-30T03:03:26.855Z,63.56
2018-07-30T03:05:26.929Z,63.27
2018-07-30T03:06:26.949Z,63.18
2018-07-30T03:07:26.971Z,62.98
2018-07-30T03:08:26.994Z,63.46
2018-07-30T03:09:27.062Z,63.46
2018-07-30T03:10:27.033Z,63.66
2018-07-30T03:11:27.071Z,63.37
2018-07-30T03:12:27.098Z,63.76
2018-07-30T03:13:27.116Z,63.37
2018-07-30T03:14:27.157Z,63.56
2018-07-30T03:15:27.184Z,63.76
2018-07-30T03:16:27.202Z,63.95
2018-07-30T03:17:27.230Z,64.31
2018-07-30T03:18:27.256Z,64.50
2018-07-30T03:19:27.280Z,64.82
2018-07-30T03:20:27.302Z,64.82
2018-07-30T03:21:27.341Z,64.34
2018-07-30T03:22:27.359Z,65.20
2018-07-30T03:23:27.381Z,65.20
2018-07-30T03:24:27.412Z,64.82
2018-07-30T03:25:27.435Z,65.37
2018-07-30T03:26:27.457Z,66.53
2018-07-30T03:27:27.488Z,66.63
2018-07-30T03:28:27.509Z,66.91
2018-07-30T03:29:27.547Z,66.82
2018-07-30T03:30:27.598Z,66.53
2018-07-30T03:31:27.587Z,66.91
2018-07-30T03:32:27.624Z,66.53
2018-07-30T03:33:27.652Z,66.53
2018-07-30T03:34:27.673Z,66.98
2018-07-30T03:35:27.687Z,66.43
2018-07-30T03:36:27.723Z,66.43
2018-07-30T03:37:27.741Z,66.43
2018-07-30T03:38:27.777Z,66.53
2018-07-30T03:39:27.797Z,67.01
2018-07-30T03:40:27.846Z,66.91
2018-07-30T03:41:27.846Z,67.75
2018-07-30T03:42:27.870Z,67.49
2018-07-30T03:43:27.906Z,67.66
2018-07-30T03:44:27.928Z,67.59
2018-07-30T03:45:27.951Z,67.36
2018-07-30T03:46:27.987Z,67.85
2018-07-30T03:47:27.995Z,67.88
2018-07-30T03:48:28.028Z,67.49
2018-07-30T03:49:28.053Z,67.36
2018-07-30T03:50:28.083Z,66.82
2018-07-30T03:51:28.133Z,66.53
2018-07-30T03:52:28.170Z,66.66
2018-07-30T03:53:28.205Z,66.08
2018-07-30T03:54:28.197Z,66.14
2018-07-30T03:55:28.203Z,65.95
2018-07-30T03:56:28.238Z,66.53
2018-07-30T03:57:28.259Z,66.72
2018-07-30T03:58:28.320Z,67.30
2018-07-30T03:59:28.368Z,67.01
2018-07-30T04:00:28.412Z,67.30
2018-07-30T04:01:28.361Z,67.17
2018-07-30T04:02:28.420Z,67.27
2018-07-30T04:03:28.424Z,67.75
2018-07-30T04:04:28.438Z,68.04
2018-07-30T04:05:28.480Z,67.75
2018-07-30T04:06:28.540Z,67.36
2018-07-30T04:07:28.517Z,67.01
2018-07-30T04:08:28.551Z,66.72
2018-07-30T04:09:28.568Z,66.72
2018-07-30T04:10:28.601Z,66.72
2018-07-30T04:11:28.623Z,66.69
2018-07-30T04:12:28.644Z,67.36
2018-07-30T04:13:28.671Z,68.43
2018-07-30T04:14:28.704Z,68.33
2018-07-30T04:15:28.717Z,67.40
2018-07-30T04:16:28.752Z,67.30
2018-07-30T04:17:28.773Z,68.62
2018-07-30T04:18:28.799Z,69.20
2018-07-30T04:20:28.856Z,69.59
2018-07-30T04:21:28.896Z,69.30
2018-07-30T04:22:28.915Z,69.78
2018-07-30T04:23:28.924Z,69.68
2018-07-30T04:24:28.972Z,68.62
2018-07-30T04:25:28.979Z,67.66
2018-07-30T04:26:29.011Z,67.21
2018-07-30T04:27:29.030Z,68.24
2018-07-30T04:28:29.095Z,68.04
2018-07-30T04:29:29.080Z,68.62
2018-07-30T04:30:29.136Z,69.40
2018-07-30T04:31:29.135Z,68.43
2018-07-30T04:33:29.182Z,69.10
2018-07-30T04:34:29.203Z,68.14
2018-07-30T04:35:29.236Z,68.62
2018-07-30T04:36:29.262Z,69.40
2018-07-30T04:37:29.295Z,69.78
2018-07-30T04:38:29.314Z,69.30
2018-07-30T04:39:29.337Z,69.49
2018-07-30T04:40:29.392Z,69.59
2018-07-30T04:41:29.385Z,69.78
2018-07-30T04:42:29.414Z,69.10
2018-07-30T04:43:29.447Z,69.49
2018-07-30T04:44:29.487Z,69.20
2018-07-30T04:45:29.489Z,69.30
2018-07-30T04:46:29.513Z,69.30
2018-07-30T04:47:29.548Z,69.49
2018-07-30T04:48:29.568Z,69.59
2018-07-30T04:49:29.595Z,69.40
2018-07-30T04:51:29.639Z,68.04
2018-07-30T04:52:29.668Z,68.14
2018-07-30T04:53:29.702Z,69.30
2018-07-30T04:54:29.729Z,68.91
2018-07-30T04:55:29.758Z,68.62
2018-07-30T04:56:29.777Z,69.40
2018-07-30T04:57:29.804Z,68.72
2018-07-30T04:58:29.821Z,68.91
2018-07-30T04:59:29.842Z,68.43
2018-07-30T05:00:29.872Z,68.52
2018-07-30T05:01:29.900Z,68.62
2018-07-30T05:02:29.919Z,68.82
2018-07-30T05:03:29.944Z,68.52
2018-07-30T05:04:29.977Z,69.10
2018-07-30T05:05:30.013Z,69.20
2018-07-30T05:06:30.059Z,69.40
2018-07-30T05:07:30.065Z,68.43
2018-07-30T05:08:30.078Z,68.91
2018-07-30T05:09:30.144Z,69.30
2018-07-30T05:10:30.132Z,68.91
2018-07-30T05:11:30.172Z,68.72
2018-07-30T05:12:30.185Z,68.62
2018-07-30T05:13:30.217Z,69.01
2018-07-30T05:14:30.232Z,69.10
2018-07-30T05:15:30.294Z,69.49
2018-07-30T05:16:30.297Z,68.62
2018-07-30T05:17:30.315Z,68.75
2018-07-30T05:18:30.354Z,68.08
2018-07-30T05:19:30.367Z,68.27
2018-07-30T05:20:30.394Z,67.88
2018-07-30T05:22:30.454Z,66.72
2018-07-30T05:23:30.461Z,67.49
2018-07-30T05:24:30.496Z,68.08
2018-07-30T05:25:30.565Z,67.11
2018-07-30T05:26:30.540Z,67.88
2018-07-30T05:27:30.571Z,68.37
2018-07-30T05:28:30.590Z,68.37
2018-07-30T05:29:30.623Z,68.37
2018-07-30T05:30:30.646Z,68.27
2018-07-30T05:31:30.700Z,68.27
2018-07-30T05:32:30.710Z,68.08
2018-07-30T05:33:30.730Z,68.56
2018-07-30T05:34:30.751Z,68.08
2018-07-30T05:35:30.797Z,68.08
2018-07-30T05:36:30.804Z,68.75
2018-07-30T05:37:30.825Z,68.66
2018-07-30T05:38:30.855Z,68.08
2018-07-30T05:39:30.890Z,68.79
2018-07-30T05:40:30.917Z,68.88
2018-07-30T05:41:30.946Z,68.21
2018-07-30T05:42:30.956Z,68.40
2018-07-30T05:43:30.998Z,67.72
2018-07-30T05:44:31.019Z,67.53
2018-07-30T05:45:31.272Z,67.43
2018-07-30T05:46:31.049Z,67.33
2018-07-30T05:47:31.081Z,67.33
2018-07-30T05:48:31.109Z,67.53
2018-07-30T05:49:31.136Z,67.05
2018-07-30T05:50:31.160Z,67.05
2018-07-30T05:51:31.185Z,66.66
2018-07-30T05:52:31.214Z,67.24
2018-07-30T05:53:31.250Z,67.33
2018-07-30T05:54:31.269Z,66.75
2018-07-30T05:55:31.310Z,66.47
2018-07-30T05:56:31.316Z,66.40
2018-07-30T05:57:31.342Z,66.60
2018-07-30T05:58:31.369Z,65.14
2018-07-30T05:59:31.416Z,65.72
2018-07-30T06:00:31.476Z,66.69
2018-07-30T06:01:31.453Z,65.59
2018-07-30T06:02:31.475Z,65.24
2018-07-30T06:03:31.494Z,65.05
2018-07-30T06:04:31.555Z,65.14
2018-07-30T06:05:31.605Z,63.69
2018-07-30T06:06:31.579Z,63.59
2018-07-30T06:07:31.605Z,63.01
2018-07-30T06:08:31.637Z,63.31
2018-07-30T06:09:31.700Z,63.40
2018-07-30T06:10:31.695Z,63.49
2018-07-30T06:11:31.713Z,63.31
2018-07-30T06:12:31.731Z,63.49
2018-07-30T06:13:31.759Z,63.69
2018-07-30T06:14:31.792Z,63.79
2018-07-30T06:15:31.808Z,63.69
2018-07-30T06:16:31.836Z,62.63
2018-07-30T06:17:31.868Z,62.63
2018-07-30T06:18:31.894Z,62.34
2018-07-30T06:19:31.924Z,62.53
2018-07-30T06:20:31.943Z,61.85
2018-07-30T06:21:31.977Z,62.53
2018-07-30T06:22:31.998Z,62.92
2018-07-30T06:23:32.024Z,62.72
2018-07-30T06:24:32.056Z,61.69
2018-07-30T06:25:32.075Z,62.07
2018-07-30T06:26:32.168Z,61.85
2018-07-30T06:27:32.145Z,61.95
2018-07-30T06:28:32.156Z,62.72
2018-07-30T06:29:32.226Z,63.40
2018-07-30T06:30:32.206Z,63.11
2018-07-30T06:31:32.243Z,61.85
2018-07-30T06:32:32.259Z,61.98
2018-07-30T06:33:32.279Z,62.53
2018-07-30T06:34:32.314Z,62.37
2018-07-30T06:35:32.350Z,62.53
2018-07-30T06:36:32.361Z,62.53
2018-07-30T06:37:32.401Z,62.56
2018-07-30T06:38:32.493Z,62.66
2018-07-30T06:39:32.448Z,62.66
2018-07-30T06:40:32.488Z,62.82
2018-07-30T06:41:32.506Z,63.31
2018-07-30T06:42:32.534Z,63.69
2018-07-30T06:43:32.568Z,63.69
2018-07-30T06:44:32.580Z,64.07
2018-07-30T06:45:32.599Z,64.07
2018-07-30T06:46:32.634Z,63.89
2018-07-30T06:47:32.672Z,63.89
2018-07-30T06:48:32.685Z,63.79
2018-07-30T06:49:32.703Z,63.89
2018-07-30T06:50:32.743Z,63.89
2018-07-30T06:51:32.757Z,63.89
2018-07-30T06:52:32.798Z,64.07
2018-07-30T06:53:32.815Z,64.04
2018-07-30T06:54:32.842Z,64.37
2018-07-30T06:55:32.899Z,64.37
2018-07-30T06:56:32.904Z,64.17
2018-07-30T06:57:32.918Z,63.62
2018-07-30T06:58:32.964Z,63.62
2018-07-30T06:59:32.976Z,63.62
2018-07-30T07:00:33.003Z,63.79
2018-07-30T07:01:33.027Z,64.01
2018-07-30T07:02:33.050Z,64.20
2018-07-30T07:03:33.087Z,64.20
2018-07-30T07:04:33.106Z,64.01
2018-07-30T07:05:33.134Z,63.43
2018-07-30T07:06:33.167Z,63.62
2018-07-30T07:07:33.191Z,63.62
2018-07-30T07:08:33.276Z,63.62
2018-07-30T07:09:33.296Z,63.82
2018-07-30T07:10:33.280Z,64.11
2018-07-30T07:11:33.292Z,64.20
2018-07-30T07:12:33.318Z,64.50
2018-07-30T07:13:33.356Z,64.20
2018-07-30T07:14:33.377Z,64.30
2018-07-30T07:15:33.421Z,64.79
2018-07-30T07:16:33.496Z,64.40
2018-07-30T07:17:33.468Z,64.20
2018-07-30T07:18:33.544Z,64.24
2018-07-30T07:19:33.523Z,63.95
2018-07-30T07:20:33.537Z,63.27
2018-07-30T07:21:33.614Z,63.75
2018-07-30T07:22:33.586Z,64.43
2018-07-30T07:23:33.617Z,64.53
2018-07-30T07:24:33.653Z,64.82
2018-07-30T07:25:33.681Z,63.95
2018-07-30T07:26:33.723Z,63.75
2018-07-30T07:27:33.734Z,63.85
2018-07-30T07:28:33.786Z,63.56
2018-07-30T07:29:33.777Z,63.56
2018-07-30T07:30:33.817Z,63.65
2018-07-30T07:31:33.830Z,63.65
2018-07-30T07:32:33.882Z,63.65
2018-07-30T07:33:33.883Z,64.62
2018-07-30T07:34:33.915Z,65.24
2018-07-30T07:35:33.940Z,64.47
2018-07-30T07:36:33.978Z,64.17
2018-07-30T07:37:34.001Z,64.37
2018-07-30T07:38:34.020Z,63.49
2018-07-30T07:39:34.057Z,62.59
2018-07-30T07:40:34.080Z,62.82
2018-07-30T07:41:34.110Z,63.10
2018-07-30T07:43:34.154Z,63.20
2018-07-30T07:44:34.184Z,63.01
2018-07-30T07:45:34.208Z,63.01
2018-07-30T07:46:34.282Z,62.82
2018-07-30T07:47:34.270Z,63.01
2018-07-30T07:48:34.298Z,64.27
2018-07-30T07:49:34.327Z,63.69
2018-07-30T07:50:34.459Z,63.78
2018-07-30T07:51:34.376Z,63.30
2018-07-30T07:52:34.405Z,63.40
2018-07-30T07:53:34.424Z,62.62
2018-07-30T07:54:34.471Z,63.20
2018-07-30T07:55:34.492Z,63.20
2018-07-30T07:56:34.517Z,62.72
2018-07-30T07:57:34.538Z,63.01
2018-07-30T07:58:34.601Z,62.91
2018-07-30T07:59:34.602Z,62.72
2018-07-30T08:00:34.625Z,62.95
2018-07-30T08:01:34.657Z,62.91
2018-07-30T08:02:34.688Z,62.72
2018-07-30T08:03:34.710Z,62.72
2018-07-30T08:04:34.750Z,62.72
2018-07-30T08:05:34.782Z,62.75
2018-07-30T08:06:34.791Z,63.04
2018-07-30T08:07:34.814Z,63.04
2018-07-30T08:08:34.840Z,63.53
2018-07-30T08:09:34.918Z,62.95
2018-07-30T08:10:34.916Z,62.16
2018-07-30T08:11:34.925Z,62.07
2018-07-30T08:12:34.947Z,61.58
2018-07-30T08:13:34.995Z,61.58
2018-07-30T08:14:35.035Z,62.07
2018-07-30T08:15:35.052Z,62.16
2018-07-30T08:16:35.065Z,61.22
2018-07-30T08:17:35.106Z,61.32
2018-07-30T08:18:35.114Z,61.81
2018-07-30T08:19:35.149Z,60.94
2018-07-30T08:20:35.178Z,60.91
2018-07-30T08:21:35.200Z,60.91
2018-07-30T08:22:35.239Z,61.04
2018-07-30T08:23:35.259Z,61.04
2018-07-30T08:24:35.289Z,60.94
2018-07-30T08:25:35.664Z,61.84
2018-07-30T08:26:35.334Z,62.10
2018-07-30T08:27:35.371Z,60.94
2018-07-30T08:28:35.387Z,60.16
2018-07-30T08:29:35.424Z,60.55
2018-07-30T08:30:35.455Z,60.84
2018-07-30T08:31:35.485Z,61.22
2018-07-30T08:32:35.512Z,61.22
2018-07-30T08:33:35.529Z,59.97
2018-07-30T08:34:35.561Z,60.00
2018-07-30T08:35:35.590Z,60.06
2018-07-30T08:36:35.609Z,59.77
2018-07-30T08:37:35.642Z,59.28
2018-07-30T08:38:35.666Z,58.51
2018-07-30T08:39:35.701Z,57.57
2018-07-30T08:40:35.878Z,57.28
2018-07-30T08:41:35.755Z,57.28
2018-07-30T08:42:35.808Z,57.28
2018-07-30T08:43:35.808Z,55.92
2018-07-30T08:44:35.964Z,56.50
2018-07-30T08:45:35.866Z,57.28
2018-07-30T08:46:35.913Z,56.98
2018-07-30T08:47:35.920Z,57.96
2018-07-30T08:48:35.941Z,57.86
2018-07-30T08:49:35.976Z,58.05
2018-07-30T08:50:36.004Z,57.60
2018-07-30T08:51:36.030Z,57.57
2018-07-30T08:52:36.061Z,57.76
2018-07-30T08:53:36.091Z,57.57
2018-07-30T08:54:36.127Z,57.96
2018-07-30T08:55:36.147Z,58.05
2018-07-30T08:56:36.179Z,58.18
2018-07-30T08:57:36.195Z,58.18
2018-07-30T08:58:36.238Z,58.05
2018-07-30T08:59:36.276Z,57.18
2018-07-30T09:00:36.284Z,57.37
2018-07-30T09:01:36.323Z,57.86
2018-07-30T09:02:36.350Z,58.18
2018-07-30T09:03:36.384Z,58.18
2018-07-30T09:04:36.555Z,58.18
2018-07-30T09:05:36.422Z,57.98
2018-07-30T09:06:36.481Z,58.18
2018-07-30T09:07:36.482Z,56.95
2018-07-30T09:08:36.521Z,56.85
2018-07-30T09:09:36.554Z,56.24
2018-07-30T09:10:36.571Z,55.88
2018-07-30T09:11:36.592Z,56.26
2018-07-30T09:12:36.716Z,56.07
2018-07-30T09:13:36.657Z,56.72
2018-07-30T09:14:36.691Z,55.88
2018-07-30T09:15:36.717Z,55.36
2018-07-30T09:16:36.742Z,54.61
2018-07-30T09:17:36.772Z,53.83
2018-07-30T09:18:36.798Z,54.52
2018-07-30T09:19:36.824Z,54.71
2018-07-30T09:20:36.856Z,54.80
2018-07-30T09:21:36.883Z,54.90
2018-07-30T09:22:36.913Z,54.29
2018-07-30T09:23:36.941Z,53.61
2018-07-30T09:24:36.966Z,52.37
2018-07-30T09:25:36.994Z,52.19
2018-07-30T09:26:37.029Z,52.37
2018-07-30T09:27:37.053Z,52.37
2018-07-30T09:28:37.086Z,52.47
2018-07-30T09:29:37.124Z,52.47
2018-07-30T09:30:37.139Z,52.59
2018-07-30T09:31:37.172Z,52.96
2018-07-30T09:32:37.265Z,51.72
2018-07-30T09:33:37.233Z,51.82
2018-07-30T09:34:37.261Z,52.21
2018-07-30T09:35:37.280Z,51.82
2018-07-30T09:36:37.306Z,51.92
2018-07-30T09:37:37.342Z,51.72
2018-07-30T09:38:37.415Z,52.11
2018-07-30T09:39:37.453Z,52.40
2018-07-30T09:40:37.423Z,52.04
2018-07-30T09:41:37.463Z,51.45
2018-07-30T09:43:37.514Z,51.92
2018-07-30T09:44:37.636Z,52.50
2018-07-30T09:45:37.585Z,52.86
2018-07-30T09:46:37.598Z,52.59
2018-07-30T09:47:37.637Z,52.59
2018-07-30T09:48:37.663Z,52.21
2018-07-30T09:49:37.690Z,52.40
2018-07-30T09:50:37.783Z,52.40
2018-07-30T09:51:37.742Z,52.33
2018-07-30T09:52:37.780Z,52.69
2018-07-30T09:53:37.805Z,53.28
2018-07-30T09:54:37.850Z,52.92
2018-07-30T09:55:37.859Z,53.67
2018-07-30T09:56:37.893Z,53.28
2018-07-30T09:57:37.936Z,51.45
2018-07-30T09:58:37.955Z,51.07
2018-07-30T09:59:37.974Z,50.97
2018-07-30T10:00:38.004Z,50.78
2018-07-30T10:01:38.031Z,51.17
2018-07-30T10:02:38.061Z,50.87
2018-07-30T10:04:38.135Z,50.78
2018-07-30T10:05:38.164Z,51.04
2018-07-30T10:06:38.183Z,49.12
2018-07-30T10:07:38.208Z,49.12
2018-07-30T10:08:38.245Z,49.99
2018-07-30T10:09:38.270Z,49.71
2018-07-30T10:10:38.293Z,48.95
2018-07-30T10:11:38.352Z,49.17
2018-07-30T10:12:38.357Z,49.83
2018-07-30T10:13:38.390Z,50.02
2018-07-30T10:14:38.445Z,50.41
2018-07-30T10:15:38.444Z,50.12
2018-07-30T10:16:38.474Z,49.56
2018-07-30T10:17:38.551Z,49.95
2018-07-30T10:18:38.535Z,50.04
2018-07-30T10:19:38.559Z,49.76
2018-07-30T10:20:38.609Z,49.85
2018-07-30T10:21:38.621Z,49.17
2018-07-30T10:22:38.648Z,48.71
2018-07-30T10:23:38.777Z,47.83
2018-07-30T10:24:38.711Z,48.19
2018-07-30T10:25:38.739Z,48.39
2018-07-30T10:26:38.773Z,48.88
2018-07-30T10:27:38.800Z,49.07
2018-07-30T10:28:38.828Z,49.17
2018-07-30T10:29:38.860Z,49.07
2018-07-30T10:30:38.914Z,50.12
2018-07-30T10:31:38.928Z,50.31
2018-07-30T10:32:38.942Z,50.41
2018-07-30T10:33:38.979Z,51.09
2018-07-30T10:34:39.036Z,50.99
2018-07-30T10:35:39.036Z,51.02
2018-07-30T10:37:39.100Z,50.24
2018-07-30T10:38:39.118Z,50.04
2018-07-30T10:39:39.148Z,49.17
2018-07-30T10:40:39.183Z,50.14
2018-07-30T10:41:39.239Z,49.66
2018-07-30T10:42:39.245Z,48.97
2018-07-30T10:43:39.266Z,48.78
2018-07-30T10:44:39.300Z,50.04
2018-07-30T10:45:39.335Z,49.73
2018-07-30T10:46:39.361Z,50.31
2018-07-30T10:47:39.393Z,49.83
2018-07-30T10:48:39.420Z,50.60
2018-07-30T10:49:39.455Z,50.21
2018-07-30T10:50:39.490Z,49.37
2018-07-30T10:51:39.513Z,49.17
2018-07-30T10:52:39.539Z,48.49
2018-07-30T10:53:39.588Z,48.10
2018-07-30T10:55:39.626Z,48.02
2018-07-30T10:56:39.657Z,48.80
2018-07-30T10:57:39.689Z,49.29
2018-07-30T10:58:39.714Z,49.29
2018-07-30T10:59:39.749Z,49.02
2018-07-30T11:00:39.805Z,48.14
2018-07-30T11:01:39.809Z,48.63
2018-07-30T11:02:39.841Z,49.00
2018-07-30T11:03:39.870Z,48.68
2018-07-30T11:04:39.899Z,48.19
2018-07-30T11:05:39.943Z,46.95
2018-07-30T11:06:39.967Z,47.15
2018-07-30T11:07:40.025Z,46.37
2018-07-30T11:08:40.020Z,46.66
2018-07-30T11:09:40.121Z,45.29
2018-07-30T11:10:40.082Z,45.39
2018-07-30T11:11:40.106Z,44.90
2018-07-30T11:12:40.129Z,44.90
2018-07-30T11:13:40.179Z,45.95
2018-07-30T11:14:40.245Z,45.49
2018-07-30T11:15:40.260Z,45.59
2018-07-30T11:16:40.263Z,44.81
2018-07-30T11:17:40.313Z,44.73
2018-07-30T11:18:40.324Z,44.62
2018-07-30T11:19:40.349Z,44.13
2018-07-30T11:20:40.386Z,43.76
2018-07-30T11:21:40.455Z,43.37
2018-07-30T11:22:40.460Z,44.44
2018-07-30T11:23:40.471Z,44.64
2018-07-30T11:24:40.506Z,44.34
2018-07-30T11:25:40.531Z,43.76
2018-07-30T11:26:40.556Z,43.18
2018-07-30T11:27:40.583Z,42.22
2018-07-30T11:28:40.633Z,41.63
2018-07-30T11:29:40.648Z,40.73
2018-07-30T11:30:40.682Z,41.42
2018-07-30T11:31:40.713Z,40.73
2018-07-30T11:32:40.736Z,41.42
2018-07-30T11:33:40.856Z,41.52
2018-07-30T11:34:40.813Z,41.52
2018-07-30T11:35:40.824Z,41.03
2018-07-30T11:36:40.860Z,41.44
2018-07-30T11:37:40.894Z,41.63
2018-07-30T11:38:40.918Z,41.83
2018-07-30T11:39:40.964Z,41.83
2018-07-30T11:40:40.986Z,41.83
2018-07-30T11:41:41.015Z,41.44
2018-07-30T11:42:41.040Z,41.38
2018-07-30T11:43:41.157Z,38.96
2018-07-30T11:44:41.101Z,38.94
2018-07-30T11:45:41.166Z,39.14
2018-07-30T11:46:41.168Z,39.06
2018-07-30T11:47:41.205Z,39.04
2018-07-30T11:48:41.330Z,39.43
2018-07-30T11:49:41.268Z,39.14
2018-07-30T11:50:41.292Z,38.18
2018-07-30T11:51:41.321Z,37.70
2018-07-30T11:52:41.363Z,37.21
2018-07-30T11:53:41.381Z,38.16
2018-07-30T11:54:41.422Z,38.84
2018-07-30T11:55:41.442Z,39.23
2018-07-30T11:56:41.478Z,40.50
2018-07-30T11:57:41.507Z,39.82
2018-07-30T11:58:41.549Z,40.01
2018-07-30T11:59:41.570Z,39.90
2018-07-30T12:00:41.604Z,39.72
2018-07-30T12:01:41.684Z,40.50
2018-07-30T12:02:41.676Z,40.00
2018-07-30T12:03:41.695Z,40.09
2018-07-30T12:04:41.728Z,40.19
2018-07-30T12:05:41.758Z,39.92
2018-07-30T12:06:41.810Z,40.48
2018-07-30T12:07:41.822Z,40.19
2018-07-30T12:08:41.851Z,39.72
2018-07-30T12:09:41.888Z,40.58
2018-07-30T12:11:41.947Z,41.95
2018-07-30T12:12:41.979Z,42.05
2018-07-30T12:13:42.009Z,40.80
2018-07-30T12:14:42.050Z,40.70
2018-07-30T12:15:42.075Z,40.48
2018-07-30T12:16:42.107Z,40.89
2018-07-30T12:17:42.149Z,40.41
2018-07-30T12:18:42.169Z,40.21
2018-07-30T12:19:42.203Z,40.31
2018-07-30T12:20:42.228Z,40.31
2018-07-30T12:21:42.333Z,40.89
2018-07-30T12:22:42.299Z,42.16
2018-07-30T12:23:42.348Z,40.70
2018-07-30T12:24:42.362Z,40.50
2018-07-30T12:25:42.400Z,40.29
2018-07-30T12:26:42.434Z,40.50
2018-07-30T12:27:42.456Z,40.60
2018-07-30T12:28:42.497Z,40.31
2018-07-30T12:29:42.519Z,40.60
2018-07-30T12:30:42.596Z,40.80
2018-07-30T12:31:42.579Z,40.50
2018-07-30T12:32:42.616Z,40.01
2018-07-30T12:33:42.639Z,40.31
2018-07-30T12:34:42.682Z,40.21
2018-07-30T12:35:42.718Z,39.45
2018-07-30T12:36:42.734Z,38.40
2018-07-30T12:37:42.773Z,38.69
2018-07-30T12:38:42.802Z,38.30
2018-07-30T12:39:42.842Z,38.96
2018-07-30T12:41:42.894Z,40.31
2018-07-30T12:42:42.923Z,39.45
2018-07-30T12:43:42.958Z,39.45
2018-07-30T12:44:42.987Z,39.16
2018-07-30T12:45:43.019Z,39.06
2018-07-30T12:46:43.061Z,39.16
2018-07-30T12:47:43.106Z,40.23
2018-07-30T12:48:43.122Z,39.37
2018-07-30T12:49:43.145Z,38.49
2018-07-30T12:50:43.184Z,38.30
2018-07-30T12:51:43.209Z,38.96
2018-07-30T12:52:43.261Z,38.79
2018-07-30T12:53:43.290Z,39.16
2018-07-30T12:54:43.324Z,39.94
2018-07-30T12:55:43.336Z,40.04
2018-07-30T12:56:43.366Z,40.21
2018-07-30T12:57:43.399Z,40.70
2018-07-30T12:58:43.445Z,39.92
2018-07-30T12:59:43.471Z,40.80
2018-07-30T13:00:43.497Z,40.41
2018-07-30T13:01:43.527Z,40.63
2018-07-30T13:02:43.596Z,40.53
2018-07-30T13:04:43.628Z,40.04
2018-07-30T13:05:43.660Z,39.47
2018-07-30T13:06:43.691Z,38.90
2018-07-30T13:07:43.713Z,38.51
2018-07-30T13:08:43.744Z,38.20
2018-07-30T13:09:43.772Z,38.30